createdAt,value
2019-02-09T00:00:28.439Z,4.98
2019-02-09T00:01:28.413Z,4.98
2019-02-09T00:02:28.400Z,4.98
2019-02-09T00:03:28.390Z,4.90
2019-02-09T00:04:28.482Z,5.13
2019-02-09T00:05:28.367Z,5.15
2019-02-09T00:06:28.358Z,5.77
2019-02-09T00:07:28.345Z,6.60
2019-02-09T00:08:28.336Z,7.32
2019-02-09T00:09:28.325Z,7.65
2019-02-09T00:10:28.312Z,7.76
2019-02-09T00:11:28.311Z,7.35
2019-02-09T00:12:29.760Z,7.07
2019-02-09T00:13:28.280Z,6.78
2019-02-09T00:14:28.271Z,7.24
2019-02-09T00:15:28.263Z,7.62
2019-02-09T00:16:28.248Z,7.71
2019-02-09T00:17:28.242Z,7.91
2019-02-09T00:18:28.229Z,8.32
2019-02-09T00:19:28.220Z,8.88
2019-02-09T00:20:28.214Z,9.47
2019-02-09T00:21:28.196Z,9.79
2019-02-09T00:22:28.186Z,10.04
2019-02-09T00:23:28.173Z,10.26
2019-02-09T00:24:28.162Z,10.61
2019-02-09T00:26:28.140Z,11.27
2019-02-09T00:38:28.017Z,9.01
2019-02-09T00:46:27.929Z,8.34
2019-02-09T00:47:27.918Z,8.14
2019-02-09T00:52:27.866Z,9.19
2019-02-09T00:53:27.856Z,9.47
2019-02-09T00:54:27.948Z,9.83
2019-02-09T00:56:27.822Z,10.97
2019-02-09T00:57:27.810Z,11.46
2019-02-09T00:58:27.802Z,11.50
2019-02-09T00:59:27.785Z,11.28
2019-02-09T01:00:27.780Z,11.25
2019-02-09T01:01:27.767Z,11.21
2019-02-09T01:02:27.754Z,11.16
2019-02-09T01:03:27.748Z,11.34
2019-02-09T01:04:27.736Z,11.39
2019-02-09T01:05:27.726Z,11.47
2019-02-09T01:08:27.690Z,11.41
2019-02-09T01:09:27.789Z,11.39
2019-02-09T01:10:27.672Z,11.38
2019-02-09T01:11:27.664Z,11.54
2019-02-09T01:12:27.650Z,11.38
2019-02-09T01:13:27.639Z,11.10
2019-02-09T01:14:27.628Z,10.80
2019-02-09T01:15:27.617Z,10.25
2019-02-09T01:16:27.609Z,10.21
2019-02-09T01:17:27.596Z,9.91
2019-02-09T01:18:27.583Z,9.44
2019-02-09T01:19:27.577Z,9.42
2019-02-09T01:20:27.568Z,9.11
2019-02-09T01:21:27.551Z,8.94
2019-02-09T01:22:27.551Z,9.17
2019-02-09T01:23:27.532Z,9.29
2019-02-09T01:24:27.520Z,9.42
2019-02-09T01:25:27.519Z,9.56
2019-02-09T01:26:27.499Z,9.82
2019-02-09T01:27:27.489Z,10.24
2019-02-09T01:30:27.456Z,11.10
2019-02-09T01:31:27.444Z,11.18
2019-02-09T01:32:27.436Z,11.46
2019-02-09T01:33:27.426Z,11.36
2019-02-09T01:34:27.420Z,11.46
2019-02-09T01:35:27.403Z,11.44
2019-02-09T01:36:27.392Z,11.47
2019-02-09T01:37:27.384Z,11.59
2019-02-09T01:46:27.283Z,12.45
2019-02-09T01:47:27.273Z,12.67
2019-02-09T01:48:27.264Z,12.41
2019-02-09T01:50:27.244Z,12.00
2019-02-09T01:55:27.441Z,12.15
2019-02-09T01:57:27.168Z,12.43
2019-02-09T01:58:27.156Z,12.50
2019-02-09T01:59:27.145Z,12.67
2019-02-09T02:00:27.136Z,12.63
2019-02-09T02:01:27.127Z,12.61
2019-02-09T02:02:27.119Z,12.51
2019-02-09T02:03:27.102Z,12.58
2019-02-09T02:04:27.094Z,12.55
2019-02-09T02:05:27.079Z,12.63
2019-02-09T02:06:27.070Z,12.69
2019-02-09T02:07:27.060Z,12.85
2019-02-09T02:08:27.051Z,12.93
2019-02-09T02:09:27.043Z,12.96
2019-02-09T02:10:27.031Z,12.92
2019-02-09T02:11:27.120Z,12.74
2019-02-09T02:12:27.004Z,12.67
2019-02-09T02:13:26.996Z,12.56
2019-02-09T02:14:26.986Z,12.55
2019-02-09T02:15:26.975Z,12.40
2019-02-09T02:16:26.962Z,12.51
2019-02-09T02:17:26.951Z,12.64
2019-02-09T02:18:26.942Z,12.66
2019-02-09T02:19:26.931Z,12.67
2019-02-09T02:20:26.922Z,12.59
2019-02-09T02:21:26.908Z,12.58
2019-02-09T02:22:26.901Z,12.79
2019-02-09T02:23:26.888Z,12.89
2019-02-09T02:24:26.881Z,12.88
2019-02-09T02:25:26.868Z,12.84
2019-02-09T02:26:26.857Z,12.82
2019-02-09T02:27:26.845Z,12.81
2019-02-09T02:28:26.832Z,12.81
2019-02-09T02:29:26.823Z,12.88
2019-02-09T02:30:26.818Z,12.84
2019-02-09T02:31:26.806Z,12.74
2019-02-09T02:32:26.792Z,12.55
2019-02-09T02:33:26.783Z,12.22
2019-02-09T02:34:26.774Z,11.75
2019-02-09T02:35:26.764Z,10.72
2019-02-09T02:36:26.748Z,9.93
2019-02-09T02:37:26.742Z,9.44
2019-02-09T02:38:26.730Z,8.94
2019-02-09T02:39:26.716Z,8.57
2019-02-09T02:40:26.712Z,8.09
2019-02-09T02:41:26.697Z,7.95
2019-02-09T02:42:26.686Z,7.86
2019-02-09T02:43:26.676Z,7.93
2019-02-09T02:44:26.663Z,8.21
2019-02-09T02:45:26.651Z,8.54
2019-02-09T02:46:26.644Z,8.97
2019-02-09T02:47:26.652Z,9.63
2019-02-09T02:48:26.631Z,10.04
2019-02-09T02:49:26.618Z,10.21
2019-02-09T02:50:26.602Z,10.24
2019-02-09T02:51:26.598Z,10.30
2019-02-09T02:52:26.575Z,9.83
2019-02-09T02:53:26.568Z,9.15
2019-02-09T02:54:26.557Z,8.68
2019-02-09T02:55:26.545Z,8.81
2019-02-09T02:56:26.639Z,9.09
2019-02-09T02:57:26.525Z,9.62
2019-02-09T02:58:26.512Z,10.04
2019-02-09T02:59:26.503Z,10.47
2019-02-09T03:00:32.188Z,10.59
2019-02-09T03:01:27.586Z,10.85
2019-02-09T03:02:26.470Z,11.00
2019-02-09T03:03:26.465Z,11.25
2019-02-09T03:04:26.447Z,11.27
2019-02-09T03:05:26.439Z,11.34
2019-02-09T03:06:26.427Z,11.44
2019-02-09T03:07:26.417Z,11.28
2019-02-09T03:08:26.406Z,11.32
2019-02-09T03:09:26.397Z,11.43
2019-02-09T03:10:26.390Z,11.36
2019-02-09T03:11:26.374Z,11.46
2019-02-09T03:12:26.363Z,11.61
2019-02-09T03:13:26.355Z,11.74
2019-02-09T03:14:26.346Z,11.75
2019-02-09T03:15:26.330Z,11.96
2019-02-09T03:16:26.322Z,11.98
2019-02-09T03:17:26.307Z,12.19
2019-02-09T03:18:26.301Z,12.50
2019-02-09T03:19:26.289Z,12.74
2019-02-09T03:20:26.284Z,12.75
2019-02-09T03:21:26.270Z,12.66
2019-02-09T03:22:26.261Z,12.47
2019-02-09T03:23:26.244Z,12.29
2019-02-09T03:24:26.241Z,12.37
2019-02-09T03:25:26.224Z,12.48
2019-02-09T03:26:26.218Z,12.74
2019-02-09T03:27:26.204Z,12.74
2019-02-09T03:28:26.192Z,12.74
2019-02-09T03:29:26.184Z,12.70
2019-02-09T03:30:26.168Z,12.45
2019-02-09T03:31:26.159Z,12.33
2019-02-09T03:32:26.159Z,11.68
2019-02-09T03:33:26.139Z,10.70
2019-02-09T03:34:26.130Z,9.60
2019-02-09T03:35:26.119Z,9.23
2019-02-09T03:36:26.115Z,9.49
2019-02-09T03:37:26.098Z,9.88
2019-02-09T03:38:26.087Z,10.24
2019-02-09T03:39:26.075Z,10.65
2019-02-09T03:40:26.070Z,11.05
2019-02-09T03:41:26.057Z,11.50
2019-02-09T03:42:26.043Z,11.74
2019-02-09T03:43:26.035Z,11.85
2019-02-09T03:44:26.032Z,12.03
2019-02-09T03:45:26.011Z,12.22
2019-02-09T03:46:25.998Z,12.26
2019-02-09T03:47:25.989Z,12.10
2019-02-09T03:48:25.982Z,12.18
2019-02-09T03:49:25.968Z,12.14
2019-02-09T03:50:26.005Z,12.08
2019-02-09T03:51:25.952Z,12.15
2019-02-09T03:52:25.939Z,12.11
2019-02-09T03:53:25.934Z,11.27
2019-02-09T03:54:25.917Z,10.30
2019-02-09T03:55:25.911Z,9.56
2019-02-09T03:56:25.900Z,9.08
2019-02-09T03:58:25.981Z,9.42
2019-02-09T03:59:25.864Z,9.69
2019-02-09T04:00:25.854Z,10.36
2019-02-09T04:01:25.843Z,10.73
2019-02-09T04:02:25.833Z,11.46
2019-02-09T04:03:25.820Z,12.12
2019-02-09T04:04:25.816Z,12.75
2019-02-09T04:05:25.811Z,13.14
2019-02-09T04:06:25.788Z,13.40
2019-02-09T04:07:25.784Z,13.58
2019-02-09T04:08:25.768Z,13.82
2019-02-09T04:09:25.760Z,13.97
2019-02-09T04:10:25.815Z,14.17
2019-02-09T04:11:25.734Z,14.13
2019-02-09T04:12:25.725Z,14.07
2019-02-09T04:13:25.718Z,13.97
2019-02-09T04:14:25.706Z,13.91
2019-02-09T04:15:25.696Z,13.94
2019-02-09T04:16:25.685Z,13.95
2019-02-09T04:17:25.674Z,13.86
2019-02-09T04:18:25.663Z,13.87
2019-02-09T04:19:25.654Z,14.00
2019-02-09T04:20:25.664Z,14.21
2019-02-09T04:21:25.631Z,14.43
2019-02-09T04:22:25.621Z,14.52
2019-02-09T04:23:25.607Z,14.00
2019-02-09T04:24:25.604Z,13.21
2019-02-09T04:25:25.591Z,12.50
2019-02-09T04:26:25.579Z,12.40
2019-02-09T04:27:25.567Z,12.56
2019-02-09T04:28:25.558Z,12.89
2019-02-09T04:29:25.550Z,13.20
2019-02-09T04:30:25.540Z,13.57
2019-02-09T04:31:25.526Z,13.73
2019-02-09T04:32:25.519Z,13.94
2019-02-09T04:33:25.502Z,14.17
2019-02-09T04:34:25.492Z,14.38
2019-02-09T04:35:25.493Z,14.39
2019-02-09T04:36:25.469Z,14.54
2019-02-09T04:37:25.463Z,14.57
2019-02-09T04:38:25.454Z,14.50
2019-02-09T04:39:25.537Z,14.56
2019-02-09T04:40:25.430Z,14.79
2019-02-09T04:41:25.423Z,14.85
2019-02-09T04:42:25.410Z,15.07
2019-02-09T04:43:25.397Z,15.22
2019-02-09T04:44:25.399Z,15.30
2019-02-09T04:45:25.401Z,15.37
2019-02-09T04:46:25.363Z,15.45
2019-02-09T04:47:25.355Z,15.52
2019-02-09T04:48:25.340Z,15.11
2019-02-09T04:49:25.390Z,14.44
2019-02-09T04:50:25.322Z,13.97
2019-02-09T04:51:25.309Z,14.25
2019-02-09T04:52:25.401Z,14.65
2019-02-09T04:53:25.293Z,14.87
2019-02-09T04:54:25.377Z,15.07
2019-02-09T04:55:25.287Z,15.25
2019-02-09T04:56:25.259Z,15.37
2019-02-09T04:57:25.242Z,15.61
2019-02-09T04:58:25.240Z,15.66
2019-02-09T04:59:25.233Z,15.75
2019-02-09T05:00:25.216Z,15.82
2019-02-09T05:01:25.205Z,15.93
2019-02-09T05:02:25.204Z,16.00
2019-02-09T05:03:25.258Z,15.97
2019-02-09T05:04:25.171Z,16.06
2019-02-09T05:05:25.159Z,16.22
2019-02-09T05:06:25.157Z,16.24
2019-02-09T05:07:25.240Z,16.25
2019-02-09T05:08:25.126Z,16.26
2019-02-09T05:09:25.119Z,16.36
2019-02-09T05:10:25.112Z,16.36
2019-02-09T05:11:25.094Z,16.33
2019-02-09T05:12:25.096Z,16.34
2019-02-09T05:13:25.077Z,16.36
2019-02-09T05:14:25.063Z,16.54
2019-02-09T05:15:25.052Z,16.52
2019-02-09T05:16:25.043Z,16.48
2019-02-09T05:17:25.033Z,16.43
2019-02-09T05:18:25.020Z,16.44
2019-02-09T05:19:25.016Z,16.48
2019-02-09T05:20:25.409Z,16.49
2019-02-09T05:21:25.039Z,16.49
2019-02-09T05:22:24.982Z,16.57
2019-02-09T05:23:24.970Z,16.59
2019-02-09T05:24:24.957Z,16.52
2019-02-09T05:25:24.956Z,16.58
2019-02-09T05:26:24.940Z,16.67
2019-02-09T05:27:24.927Z,16.69
2019-02-09T05:28:24.934Z,16.62
2019-02-09T05:29:24.911Z,16.70
2019-02-09T05:30:24.940Z,16.76
2019-02-09T05:31:24.885Z,16.47
2019-02-09T05:32:24.873Z,15.85
2019-02-09T05:33:24.867Z,15.26
2019-02-09T05:34:24.853Z,14.90
2019-02-09T05:35:24.842Z,15.11
2019-02-09T05:36:24.831Z,15.27
2019-02-09T05:37:24.824Z,15.68
2019-02-09T05:38:24.816Z,15.79
2019-02-09T05:39:24.802Z,15.96
2019-02-09T05:40:24.794Z,16.15
2019-02-09T05:41:24.785Z,16.24
2019-02-09T05:42:24.769Z,16.39
2019-02-09T05:43:24.765Z,16.44
2019-02-09T05:44:24.751Z,16.36
2019-02-09T05:45:24.744Z,15.94
2019-02-09T05:46:24.728Z,15.38
2019-02-09T05:47:24.717Z,15.25
2019-02-09T05:48:24.710Z,15.48
2019-02-09T05:49:24.700Z,15.68
2019-02-09T05:50:24.686Z,15.92
2019-02-09T05:51:24.678Z,16.12
2019-02-09T05:52:24.669Z,16.22
2019-02-09T05:53:24.911Z,16.47
2019-02-09T05:54:24.648Z,16.54
2019-02-09T05:55:24.637Z,16.62
2019-02-09T05:56:24.625Z,16.69
2019-02-09T05:57:24.616Z,16.74
2019-02-09T05:58:24.607Z,16.84
2019-02-09T05:59:24.592Z,16.93
2019-02-09T06:00:24.585Z,16.92
2019-02-09T06:01:31.840Z,16.92
2019-02-09T06:02:25.666Z,16.98
2019-02-09T06:03:24.556Z,17.03
2019-02-09T06:04:24.646Z,16.95
2019-02-09T06:05:24.537Z,17.03
2019-02-09T06:06:24.522Z,17.07
2019-02-09T06:07:24.518Z,17.13
2019-02-09T06:08:24.501Z,17.00
2019-02-09T06:09:24.492Z,17.13
2019-02-09T06:10:24.481Z,17.13
2019-02-09T06:11:24.480Z,17.10
2019-02-09T06:12:24.459Z,17.11
2019-02-09T06:13:24.449Z,17.17
2019-02-09T06:14:24.437Z,17.23
2019-02-09T06:15:24.427Z,17.17
2019-02-09T06:16:24.418Z,17.10
2019-02-09T06:17:24.407Z,17.07
2019-02-09T06:18:24.398Z,17.10
2019-02-09T06:19:24.386Z,17.14
2019-02-09T06:20:24.381Z,17.13
2019-02-09T06:21:24.382Z,17.13
2019-02-09T06:22:24.358Z,17.11
2019-02-09T06:23:24.345Z,17.10
2019-02-09T06:24:24.336Z,17.13
2019-02-09T06:25:24.342Z,16.99
2019-02-09T06:26:24.313Z,17.06
2019-02-09T06:27:24.305Z,17.11
2019-02-09T06:28:24.293Z,17.08
2019-02-09T06:29:24.287Z,17.18
2019-02-09T06:30:24.273Z,17.23
2019-02-09T06:31:24.261Z,17.25
2019-02-09T06:32:24.255Z,17.30
2019-02-09T06:33:24.240Z,17.28
2019-02-09T06:34:24.231Z,17.33
2019-02-09T06:35:24.228Z,17.26
2019-02-09T06:36:24.212Z,17.35
2019-02-09T06:37:24.213Z,17.28
2019-02-09T06:38:24.192Z,17.36
2019-02-09T06:39:24.193Z,17.36
2019-02-09T06:40:24.179Z,17.35
2019-02-09T06:41:24.161Z,17.36
2019-02-09T06:42:24.152Z,17.33
2019-02-09T06:43:24.141Z,17.28
2019-02-09T06:44:24.128Z,17.30
2019-02-09T06:45:24.136Z,17.33
2019-02-09T06:46:24.110Z,17.25
2019-02-09T06:47:24.099Z,17.32
2019-02-09T06:48:24.090Z,17.30
2019-02-09T06:49:24.075Z,17.40
2019-02-09T06:50:24.065Z,17.40
2019-02-09T06:51:24.057Z,17.47
2019-02-09T06:52:24.042Z,17.44
2019-02-09T06:53:24.039Z,17.54
2019-02-09T06:54:24.124Z,17.51
2019-02-09T06:55:24.009Z,17.54
2019-02-09T06:56:23.999Z,17.57
2019-02-09T06:57:23.989Z,17.55
2019-02-09T06:58:23.983Z,17.54
2019-02-09T06:59:23.971Z,17.54
2019-02-09T07:00:23.962Z,17.62
2019-02-09T07:01:23.953Z,17.61
2019-02-09T07:02:23.935Z,17.65
2019-02-09T07:03:23.928Z,17.55
2019-02-09T07:04:23.918Z,17.59
2019-02-09T07:05:23.912Z,17.51
2019-02-09T07:06:23.898Z,17.47
2019-02-09T07:07:23.887Z,17.41
2019-02-09T07:08:23.877Z,17.40
2019-02-09T07:09:23.966Z,17.36
2019-02-09T07:10:23.854Z,17.48
2019-02-09T07:11:23.843Z,17.36
2019-02-09T07:12:23.828Z,17.32
2019-02-09T07:13:23.820Z,17.40
2019-02-09T07:14:23.810Z,17.33
2019-02-09T07:15:23.800Z,17.35
2019-02-09T07:16:23.789Z,17.30
2019-02-09T07:17:23.777Z,17.32
2019-02-09T07:18:23.769Z,17.30
2019-02-09T07:19:23.757Z,17.41
2019-02-09T07:20:23.745Z,17.35
2019-02-09T07:21:23.733Z,17.36
2019-02-09T07:22:23.729Z,17.35
2019-02-09T07:23:23.718Z,17.26
2019-02-09T07:24:23.704Z,17.29
2019-02-09T07:25:23.693Z,17.26
2019-02-09T07:26:23.684Z,17.29
2019-02-09T07:27:23.673Z,17.23
2019-02-09T07:28:23.661Z,17.23
2019-02-09T07:29:23.661Z,17.25
2019-02-09T07:30:23.643Z,17.28
2019-02-09T07:31:23.632Z,17.35
2019-02-09T07:32:23.617Z,17.33
2019-02-09T07:33:23.649Z,17.41
2019-02-09T07:34:23.599Z,17.32
2019-02-09T07:35:23.592Z,17.32
2019-02-09T07:36:23.583Z,17.26
2019-02-09T07:37:23.580Z,17.36
2019-02-09T07:38:23.559Z,17.38
2019-02-09T07:39:23.546Z,17.33
2019-02-09T07:40:23.538Z,17.33
2019-02-09T07:41:23.526Z,17.40
2019-02-09T07:42:23.513Z,17.38
2019-02-09T07:43:23.511Z,17.38
2019-02-09T07:44:23.493Z,17.46
2019-02-09T07:45:23.483Z,17.53
2019-02-09T07:46:23.475Z,17.44
2019-02-09T07:47:23.462Z,17.36
2019-02-09T07:48:24.099Z,17.48
2019-02-09T07:49:23.440Z,17.40
2019-02-09T07:50:23.432Z,17.43
2019-02-09T07:51:23.427Z,17.35
2019-02-09T07:52:23.411Z,17.41
2019-02-09T07:53:23.400Z,17.40
2019-02-09T07:54:23.491Z,17.32
2019-02-09T07:55:23.481Z,17.44
2019-02-09T07:56:23.377Z,17.43
2019-02-09T07:57:23.361Z,17.41
2019-02-09T07:58:23.351Z,17.41
2019-02-09T07:59:23.346Z,17.47
2019-02-09T08:00:23.331Z,17.46
2019-02-09T08:01:23.323Z,17.50
2019-02-09T08:02:23.307Z,17.48
2019-02-09T08:03:23.300Z,17.44
2019-02-09T08:04:23.285Z,17.36
2019-02-09T08:05:23.275Z,17.46
2019-02-09T08:06:23.263Z,17.50
2019-02-09T08:07:23.254Z,17.33
2019-02-09T08:08:23.247Z,17.46
2019-02-09T08:09:23.234Z,17.44
2019-02-09T08:10:23.226Z,17.38
2019-02-09T08:11:23.220Z,17.41
2019-02-09T08:12:23.202Z,17.38
2019-02-09T08:13:23.190Z,17.32
2019-02-09T08:14:23.180Z,17.43
2019-02-09T08:15:23.174Z,17.41
2019-02-09T08:16:23.161Z,17.44
2019-02-09T08:17:23.153Z,17.44
2019-02-09T08:18:23.140Z,17.47
2019-02-09T08:19:23.128Z,17.41
2019-02-09T08:20:23.124Z,17.47
2019-02-09T08:21:23.116Z,17.44
2019-02-09T08:22:23.098Z,17.41
2019-02-09T08:23:23.097Z,17.41
2019-02-09T08:24:23.086Z,17.41
2019-02-09T08:25:23.071Z,17.36
2019-02-09T08:26:23.057Z,17.48
2019-02-09T08:27:23.765Z,17.48
2019-02-09T08:28:23.035Z,17.38
2019-02-09T08:29:23.027Z,17.51
2019-02-09T08:30:23.016Z,17.51
2019-02-09T08:31:23.016Z,17.55
2019-02-09T08:32:23.001Z,17.68
2019-02-09T08:33:22.984Z,17.57
2019-02-09T08:34:22.973Z,17.70
2019-02-09T08:35:22.963Z,17.78
2019-02-09T08:36:22.959Z,17.83
2019-02-09T08:37:22.940Z,17.91
2019-02-09T08:38:22.929Z,17.96
2019-02-09T08:39:22.921Z,17.84
2019-02-09T08:40:22.909Z,17.91
2019-02-09T08:41:22.898Z,17.81
2019-02-09T08:42:22.888Z,17.59
2019-02-09T08:43:22.876Z,17.35
2019-02-09T08:44:22.870Z,16.95
2019-02-09T08:45:22.858Z,16.95
2019-02-09T08:46:22.844Z,17.10
2019-02-09T08:47:22.833Z,17.29
2019-02-09T08:48:22.825Z,17.40
2019-02-09T08:49:22.814Z,17.51
2019-02-09T08:50:22.801Z,17.75
2019-02-09T08:51:22.794Z,17.68
2019-02-09T08:52:22.778Z,17.80
2019-02-09T08:53:22.769Z,17.87
2019-02-09T08:54:22.760Z,17.91
2019-02-09T08:55:22.849Z,17.94
2019-02-09T08:56:22.738Z,18.06
2019-02-09T08:57:22.727Z,18.08
2019-02-09T08:58:22.717Z,18.12
2019-02-09T08:59:22.706Z,18.21
2019-02-09T09:00:22.695Z,18.17
2019-02-09T09:01:22.689Z,18.14
2019-02-09T09:02:22.674Z,18.08
2019-02-09T09:03:22.663Z,18.12
2019-02-09T09:04:22.651Z,18.05
2019-02-09T09:05:22.643Z,18.09
2019-02-09T09:06:22.639Z,17.99
2019-02-09T09:07:22.622Z,18.01
2019-02-09T09:08:22.608Z,18.05
2019-02-09T09:09:22.602Z,18.16
2019-02-09T09:10:22.588Z,18.24
2019-02-09T09:11:22.582Z,18.23
2019-02-09T09:12:22.568Z,18.20
2019-02-09T09:13:22.556Z,18.14
2019-02-09T09:14:22.543Z,18.20
2019-02-09T09:15:22.536Z,18.18
2019-02-09T09:16:22.523Z,18.14
2019-02-09T09:17:22.511Z,18.14
2019-02-09T09:18:22.506Z,18.17
2019-02-09T09:19:22.488Z,18.17
2019-02-09T09:20:22.480Z,18.24
2019-02-09T09:21:22.469Z,18.26
2019-02-09T09:22:22.463Z,18.17
2019-02-09T09:23:22.447Z,18.16
2019-02-09T09:24:22.439Z,18.06
2019-02-09T09:25:22.427Z,18.09
2019-02-09T09:26:22.420Z,18.09
2019-02-09T09:27:22.406Z,18.05
2019-02-09T09:28:22.397Z,18.06
2019-02-09T09:29:22.386Z,18.11
2019-02-09T09:30:22.371Z,18.05
2019-02-09T09:31:22.362Z,18.09
2019-02-09T09:32:28.460Z,18.01
2019-02-09T09:33:23.450Z,17.90
2019-02-09T09:34:22.333Z,17.69
2019-02-09T09:35:22.319Z,17.54
2019-02-09T09:36:22.307Z,17.55
2019-02-09T09:37:22.301Z,17.47
2019-02-09T09:38:22.285Z,17.47
2019-02-09T09:39:22.273Z,17.55
2019-02-09T09:40:22.264Z,17.59
2019-02-09T09:41:22.253Z,17.70
2019-02-09T09:42:22.242Z,17.70
2019-02-09T09:43:22.236Z,17.81
2019-02-09T09:44:22.221Z,17.68
2019-02-09T09:45:22.219Z,17.69
2019-02-09T09:46:22.202Z,17.66
2019-02-09T09:47:22.188Z,17.55
2019-02-09T09:48:22.181Z,17.63
2019-02-09T09:49:22.169Z,17.78
2019-02-09T09:50:22.152Z,17.91
2019-02-09T09:51:22.147Z,17.83
2019-02-09T09:52:22.135Z,18.01
2019-02-09T09:53:22.122Z,18.09
2019-02-09T09:54:22.112Z,18.16
2019-02-09T09:55:22.099Z,18.17
2019-02-09T09:56:22.341Z,18.16
2019-02-09T09:57:22.080Z,18.21
2019-02-09T09:58:22.072Z,18.12
2019-02-09T09:59:22.060Z,18.09
2019-02-09T10:00:22.051Z,18.02
2019-02-09T10:01:22.039Z,18.01
2019-02-09T10:02:22.027Z,18.02
2019-02-09T10:03:22.015Z,17.90
2019-02-09T10:04:22.005Z,17.99
2019-02-09T10:05:21.994Z,17.98
2019-02-09T10:06:21.983Z,17.87
2019-02-09T10:07:21.973Z,17.83
2019-02-09T10:08:21.962Z,17.87
2019-02-09T10:09:21.952Z,17.87
2019-02-09T10:10:21.944Z,17.87
2019-02-09T10:11:21.936Z,17.80
2019-02-09T10:12:21.925Z,17.87
2019-02-09T10:13:21.920Z,17.91
2019-02-09T10:14:21.902Z,17.86
2019-02-09T10:15:21.891Z,17.86
2019-02-09T10:16:21.885Z,17.86
2019-02-09T10:17:21.868Z,17.78
2019-02-09T10:18:21.861Z,17.87
2019-02-09T10:19:21.848Z,17.78
2019-02-09T10:20:21.845Z,17.70
2019-02-09T10:21:21.829Z,17.62
2019-02-09T10:22:21.819Z,17.63
2019-02-09T10:23:21.807Z,17.65
2019-02-09T10:24:21.800Z,17.55
2019-02-09T10:25:21.784Z,17.68
2019-02-09T10:26:21.774Z,17.77
2019-02-09T10:27:21.769Z,17.87
2019-02-09T10:28:21.758Z,18.01
2019-02-09T10:29:21.743Z,18.09
2019-02-09T10:30:21.738Z,18.18
2019-02-09T10:31:21.722Z,18.16
2019-02-09T10:32:21.713Z,18.18
2019-02-09T10:33:21.721Z,18.24
2019-02-09T10:34:21.689Z,18.24
2019-02-09T10:35:21.680Z,18.21
2019-02-09T10:36:21.667Z,18.12
2019-02-09T10:37:21.658Z,18.17
2019-02-09T10:38:21.653Z,18.08
2019-02-09T10:39:21.644Z,18.06
2019-02-09T10:40:21.623Z,18.05
2019-02-09T10:41:21.613Z,18.06
2019-02-09T10:42:21.607Z,17.96
2019-02-09T10:43:21.596Z,17.99
2019-02-09T10:44:21.586Z,18.02
2019-02-09T10:45:21.570Z,17.96
2019-02-09T10:46:21.560Z,17.99
2019-02-09T10:47:21.555Z,17.94
2019-02-09T10:48:21.537Z,18.01
2019-02-09T10:49:21.535Z,17.99
2019-02-09T10:50:21.515Z,18.03
2019-02-09T10:51:21.508Z,17.96
2019-02-09T10:52:21.597Z,17.99
2019-02-09T10:53:21.485Z,17.94
2019-02-09T10:54:21.573Z,17.90
2019-02-09T10:55:21.462Z,17.99
2019-02-09T10:56:21.458Z,17.99
2019-02-09T10:57:21.448Z,17.94
2019-02-09T10:58:21.433Z,17.98
2019-02-09T10:59:21.423Z,18.02
2019-02-09T11:00:21.417Z,17.99
2019-02-09T11:01:21.402Z,17.86
2019-02-09T11:02:21.390Z,17.87
2019-02-09T11:03:21.376Z,17.75
2019-02-09T11:04:21.364Z,17.72
2019-02-09T11:05:21.352Z,17.68
2019-02-09T11:06:21.344Z,17.59
2019-02-09T11:07:21.335Z,17.63
2019-02-09T11:08:21.327Z,17.68
2019-02-09T11:09:21.310Z,17.70
2019-02-09T11:10:21.298Z,17.63
2019-02-09T11:11:21.290Z,17.65
2019-02-09T11:12:21.284Z,17.65
2019-02-09T11:13:21.267Z,17.66
2019-02-09T11:14:21.259Z,17.65
2019-02-09T11:15:21.247Z,17.65
2019-02-09T11:16:21.245Z,17.65
2019-02-09T11:17:21.227Z,17.53
2019-02-09T11:18:21.219Z,17.53
2019-02-09T11:19:22.211Z,17.59
2019-02-09T11:20:21.196Z,17.48
2019-02-09T11:21:21.184Z,17.41
2019-02-09T11:22:21.172Z,17.43
2019-02-09T11:23:21.162Z,17.43
2019-02-09T11:24:21.150Z,17.35
2019-02-09T11:25:21.143Z,17.30
2019-02-09T11:26:21.136Z,17.36
2019-02-09T11:27:21.224Z,17.32
2019-02-09T11:28:21.106Z,17.25
2019-02-09T11:29:21.100Z,17.15
2019-02-09T11:30:21.092Z,17.25
2019-02-09T11:31:21.076Z,17.22
2019-02-09T11:32:21.069Z,17.18
2019-02-09T11:33:21.071Z,17.18
2019-02-09T11:34:21.045Z,17.11
2019-02-09T11:35:21.040Z,17.00
2019-02-09T11:36:21.026Z,16.88
2019-02-09T11:37:21.016Z,16.55
2019-02-09T11:38:21.004Z,16.24
2019-02-09T11:39:20.994Z,15.92
2019-02-09T11:40:20.985Z,15.88
2019-02-09T11:41:20.975Z,15.96
2019-02-09T11:42:20.964Z,16.19
2019-02-09T11:43:20.955Z,16.37
2019-02-09T11:44:20.953Z,16.37
2019-02-09T11:45:20.931Z,16.32
2019-02-09T11:46:20.921Z,16.40
2019-02-09T11:47:20.914Z,16.32
2019-02-09T11:48:20.904Z,16.41
2019-02-09T11:49:20.892Z,16.47
2019-02-09T11:50:20.883Z,16.57
2019-02-09T11:51:20.871Z,16.54
2019-02-09T11:52:22.184Z,16.52
2019-02-09T11:53:20.955Z,16.55
2019-02-09T11:54:20.851Z,16.48
2019-02-09T11:55:20.832Z,16.09
2019-02-09T11:56:20.818Z,15.78
2019-02-09T11:57:20.808Z,15.37
2019-02-09T11:58:20.801Z,14.90
2019-02-09T11:59:21.333Z,15.04
2019-02-09T12:00:20.786Z,15.22
2019-02-09T12:01:20.770Z,15.34
2019-02-09T12:02:20.757Z,15.34
2019-02-09T12:03:20.745Z,15.37
2019-02-09T12:04:20.733Z,15.49
2019-02-09T12:05:20.870Z,15.57
2019-02-09T12:06:20.744Z,15.66
2019-02-09T12:07:20.704Z,15.66
2019-02-09T12:08:20.693Z,15.78
2019-02-09T12:09:20.694Z,15.81
2019-02-09T12:10:20.677Z,15.74
2019-02-09T12:11:20.662Z,15.72
2019-02-09T12:12:20.649Z,15.44
2019-02-09T12:13:20.638Z,15.00
2019-02-09T12:14:20.631Z,14.49
2019-02-09T12:15:20.619Z,13.91
2019-02-09T12:16:20.612Z,13.57
2019-02-09T12:17:20.602Z,13.04
2019-02-09T12:18:20.585Z,12.75
2019-02-09T12:19:20.575Z,12.32
2019-02-09T12:20:20.564Z,12.15
2019-02-09T12:21:20.554Z,12.10
2019-02-09T12:22:20.543Z,11.87
2019-02-09T12:23:20.532Z,11.80
2019-02-09T12:24:20.517Z,11.68
2019-02-09T12:25:20.515Z,11.62
2019-02-09T12:26:20.500Z,11.62
2019-02-09T12:27:20.489Z,11.36
2019-02-09T12:28:20.476Z,11.38
2019-02-09T12:29:20.471Z,11.92
2019-02-09T12:30:20.461Z,12.38
2019-02-09T12:31:20.455Z,12.89
2019-02-09T12:32:20.434Z,13.32
2019-02-09T12:33:23.052Z,13.51
2019-02-09T12:34:20.414Z,13.58
2019-02-09T12:35:20.402Z,13.62
2019-02-09T12:36:20.401Z,13.95
2019-02-09T12:37:20.380Z,14.01
2019-02-09T12:38:20.373Z,14.28
2019-02-09T12:39:20.360Z,14.47
2019-02-09T12:40:20.356Z,14.57
2019-02-09T12:41:20.342Z,14.24
2019-02-09T12:42:20.328Z,14.03
2019-02-09T12:43:20.318Z,13.62
2019-02-09T12:44:20.328Z,13.39
2019-02-09T12:45:20.300Z,13.17
2019-02-09T12:46:20.288Z,12.95
2019-02-09T12:47:20.274Z,12.69
2019-02-09T12:48:20.263Z,12.43
2019-02-09T12:49:20.261Z,12.29
2019-02-09T12:50:20.246Z,11.98
2019-02-09T12:51:20.237Z,11.86
2019-02-09T12:52:20.222Z,11.71
2019-02-09T12:53:20.221Z,11.49
2019-02-09T12:54:20.455Z,11.35
2019-02-09T12:55:20.198Z,11.18
2019-02-09T12:56:20.214Z,11.10
2019-02-09T12:57:20.169Z,10.97
2019-02-09T12:58:20.159Z,10.91
2019-02-09T12:59:20.152Z,10.87
2019-02-09T13:00:20.146Z,10.72
2019-02-09T13:01:20.136Z,10.76
2019-02-09T13:02:20.115Z,10.72
2019-02-09T13:03:20.121Z,10.69
2019-02-09T13:04:20.097Z,10.65
2019-02-09T13:05:20.084Z,10.62
2019-02-09T13:06:20.079Z,10.57
2019-02-09T13:07:20.066Z,10.46
2019-02-09T13:08:20.051Z,10.37
2019-02-09T13:09:20.148Z,10.57
2019-02-09T13:10:20.033Z,10.61
2019-02-09T13:11:20.027Z,10.69
2019-02-09T13:12:20.018Z,10.72
2019-02-09T13:13:20.004Z,10.97
2019-02-09T13:14:19.986Z,11.71
2019-02-09T13:15:19.994Z,12.41
2019-02-09T13:16:19.968Z,12.97
2019-02-09T13:17:19.955Z,13.40
2019-02-09T13:18:19.944Z,13.75
2019-02-09T13:19:19.940Z,13.98
2019-02-09T13:20:19.930Z,14.16
2019-02-09T13:21:19.917Z,14.28
2019-02-09T13:22:19.906Z,14.21
2019-02-09T13:23:19.904Z,14.32
2019-02-09T13:24:19.883Z,14.44
2019-02-09T13:25:19.971Z,14.54
2019-02-09T13:26:19.862Z,14.68
2019-02-09T13:27:19.858Z,14.72
2019-02-09T13:28:19.839Z,14.80
2019-02-09T13:29:19.835Z,14.92
2019-02-09T13:30:19.818Z,15.00
2019-02-09T13:31:19.815Z,14.94
2019-02-09T13:32:19.796Z,14.85
2019-02-09T13:33:19.788Z,14.82
2019-02-09T13:34:19.776Z,14.86
2019-02-09T13:35:19.765Z,14.83
2019-02-09T13:36:19.758Z,14.75
2019-02-09T13:37:19.747Z,14.74